sensor_id;sensor_type;location;lat;lon;timestamp;temperature;humidity
32728;DHT22;55292;51.844;19.246;2023-02-20T00:01:27;1.20;99.90
32728;DHT22;55292;51.844;19.246;2023-02-20T00:06:30;1.20;99.90
32728;DHT22;55292;51.844;19.246;2023-02-20T00:21:45;1.20;99.90
32728;DHT22;55292;51.844;19.246;2023-02-20T00:26:49;1.20;99.90
32728;DHT22;55292;51.844;19.246;2023-02-20T00:31:57;1.30;99.90
32728;DHT22;55292;51.844;19.246;2023-02-20T00:37:00;1.30;99.90
32728;DHT22;55292;51.844;19.246;2023-02-20T01:02:15;0.70;99.90
32728;DHT22;55292;51.844;19.246;2023-02-20T01:17:24;0.80;99.90
32728;DHT22;55292;51.844;19.246;2023-02-20T01:52:50;0.80;99.90
32728;DHT22;55292;51.844;19.246;2023-02-20T01:57:58;0.90;99.90
32728;DHT22;55292;51.844;19.246;2023-02-20T02:03:10;1.00;99.90
32728;DHT22;55292;51.844;19.246;2023-02-20T02:08:15;1.00;99.90
32728;DHT22;55292;51.844;19.246;2023-02-20T02:13:20;1.10;99.90
32728;DHT22;55292;51.844;19.246;2023-02-20T02:23:59;1.20;99.90
32728;DHT22;55292;51.844;19.246;2023-02-20T02:39:27;1.00;99.90
32728;DHT22;55292;51.844;19.246;2023-02-20T02:50:05;0.90;99.90
32728;DHT22;55292;51.844;19.246;2023-02-20T03:00:18;0.90;99.90
32728;DHT22;55292;51.844;19.246;2023-02-20T03:05:25;0.90;99.90
32728;DHT22;55292;51.844;19.246;2023-02-20T03:15:38;0.90;99.90
32728;DHT22;55292;51.844;19.246;2023-02-20T03:20:45;0.90;99.90
32728;DHT22;55292;51.844;19.246;2023-02-20T03:25:54;1.00;99.90
32728;DHT22;55292;51.844;19.246;2023-02-20T03:31:25;1.00;99.90
32728;DHT22;55292;51.844;19.246;2023-02-20T03:36:33;0.90;99.90
32728;DHT22;55292;51.844;19.246;2023-02-20T03:41:56;1.00;99.90
32728;DHT22;55292;51.844;19.246;2023-02-20T03:47:26;1.10;99.90
32728;DHT22;55292;51.844;19.246;2023-02-20T03:57:38;1.30;99.90
32728;DHT22;55292;51.844;19.246;2023-02-20T04:02:43;1.30;99.90
32728;DHT22;55292;51.844;19.246;2023-02-20T04:13:02;1.40;99.90
32728;DHT22;55292;51.844;19.246;2023-02-20T04:18:10;1.50;99.90
32728;DHT22;55292;51.844;19.246;2023-02-20T04:23:19;1.50;99.90
32728;DHT22;55292;51.844;19.246;2023-02-20T04:28:23;1.50;99.90
32728;DHT22;55292;51.844;19.246;2023-02-20T04:43:46;1.60;99.90
32728;DHT22;55292;51.844;19.246;2023-02-20T04:53:54;1.50;99.90
32728;DHT22;55292;51.844;19.246;2023-02-20T05:04:00;1.70;99.90
32728;DHT22;55292;51.844;19.246;2023-02-20T05:09:03;1.60;99.90
32728;DHT22;55292;51.844;19.246;2023-02-20T05:19:10;1.60;99.90
32728;DHT22;55292;51.844;19.246;2023-02-20T05:39:27;1.70;99.90
32728;DHT22;55292;51.844;19.246;2023-02-20T05:49:34;1.70;99.90
32728;DHT22;55292;51.844;19.246;2023-02-20T05:54:39;1.80;99.90
32728;DHT22;55292;51.844;19.246;2023-02-20T05:59:42;1.90;99.90
32728;DHT22;55292;51.844;19.246;2023-02-20T06:04:44;2.00;99.90
32728;DHT22;55292;51.844;19.246;2023-02-20T06:24:56;2.40;99.90
32728;DHT22;55292;51.844;19.246;2023-02-20T06:55:19;2.70;99.90
32728;DHT22;55292;51.844;19.246;2023-02-20T07:00:22;2.80;99.90
32728;DHT22;55292;51.844;19.246;2023-02-20T07:05:24;2.90;99.90
32728;DHT22;55292;51.844;19.246;2023-02-20T07:10:29;3.00;99.90
32728;DHT22;55292;51.844;19.246;2023-02-20T07:20:34;3.00;99.90
32728;DHT22;55292;51.844;19.246;2023-02-20T07:30:40;3.30;99.90
32728;DHT22;55292;51.844;19.246;2023-02-20T07:35:46;3.50;99.90
32728;DHT22;55292;51.844;19.246;2023-02-20T07:40:49;3.50;99.90
32728;DHT22;55292;51.844;19.246;2023-02-20T07:45:52;3.40;99.90
32728;DHT22;55292;51.844;19.246;2023-02-20T07:50:57;3.40;99.90
32728;DHT22;55292;51.844;19.246;2023-02-20T08:01:03;3.30;99.90
32728;DHT22;55292;51.844;19.246;2023-02-20T08:06:07;3.20;99.90
32728;DHT22;55292;51.844;19.246;2023-02-20T08:16:12;3.60;99.90
32728;DHT22;55292;51.844;19.246;2023-02-20T08:21:17;3.50;99.90
32728;DHT22;55292;51.844;19.246;2023-02-20T08:41:44;3.50;99.90
32728;DHT22;55292;51.844;19.246;2023-02-20T08:46:49;3.70;99.90
32728;DHT22;55292;51.844;19.246;2023-02-20T08:51:53;3.70;99.90
32728;DHT22;55292;51.844;19.246;2023-02-20T09:07:03;3.50;99.90
32728;DHT22;55292;51.844;19.246;2023-02-20T09:12:06;3.60;99.90
32728;DHT22;55292;51.844;19.246;2023-02-20T09:17:08;3.60;99.90
32728;DHT22;55292;51.844;19.246;2023-02-20T09:27:14;3.90;99.90
32728;DHT22;55292;51.844;19.246;2023-02-20T09:37:19;3.80;99.90
32728;DHT22;55292;51.844;19.246;2023-02-20T09:48:11;3.80;99.90
32728;DHT22;55292;51.844;19.246;2023-02-20T09:58:46;4.20;99.90
32728;DHT22;55292;51.844;19.246;2023-02-20T10:04:03;4.40;99.90
32728;DHT22;55292;51.844;19.246;2023-02-20T10:09:12;4.50;99.90
32728;DHT22;55292;51.844;19.246;2023-02-20T10:14:43;4.70;99.90
32728;DHT22;55292;51.844;19.246;2023-02-20T10:20:06;4.90;99.90
32728;DHT22;55292;51.844;19.246;2023-02-20T10:30:33;5.00;99.90
32728;DHT22;55292;51.844;19.246;2023-02-20T10:35:44;5.10;99.90
32728;DHT22;55292;51.844;19.246;2023-02-20T10:40:59;5.10;99.90
32728;DHT22;55292;51.844;19.246;2023-02-20T10:51:29;5.00;99.90
32728;DHT22;55292;51.844;19.246;2023-02-20T10:56:40;5.00;99.90
32728;DHT22;55292;51.844;19.246;2023-02-20T11:01:48;5.00;99.90
32728;DHT22;55292;51.844;19.246;2023-02-20T11:06:56;5.00;99.90
32728;DHT22;55292;51.844;19.246;2023-02-20T11:12:02;4.90;99.90
32728;DHT22;55292;51.844;19.246;2023-02-20T11:17:09;5.00;99.90
32728;DHT22;55292;51.844;19.246;2023-02-20T11:22:15;4.80;99.90
32728;DHT22;55292;51.844;19.246;2023-02-20T11:27:20;5.10;99.90
32728;DHT22;55292;51.844;19.246;2023-02-20T11:32:28;5.20;99.90
32728;DHT22;55292;51.844;19.246;2023-02-20T11:37:31;5.50;99.90
32728;DHT22;55292;51.844;19.246;2023-02-20T11:42:41;5.70;99.90
32728;DHT22;55292;51.844;19.246;2023-02-20T11:47:44;5.70;99.90
32728;DHT22;55292;51.844;19.246;2023-02-20T11:53:02;5.90;99.90
32728;DHT22;55292;51.844;19.246;2023-02-20T11:58:23;6.00;99.90
32728;DHT22;55292;51.844;19.246;2023-02-20T12:03:29;6.00;99.90
32728;DHT22;55292;51.844;19.246;2023-02-20T12:13:50;6.20;99.90
32728;DHT22;55292;51.844;19.246;2023-02-20T12:46:54;7.00;99.90
32728;DHT22;55292;51.844;19.246;2023-02-20T12:57:52;7.30;99.90
32728;DHT22;55292;51.844;19.246;2023-02-20T13:03:06;7.60;99.90
32728;DHT22;55292;51.844;19.246;2023-02-20T13:18:53;8.30;99.90
32728;DHT22;55292;51.844;19.246;2023-02-20T13:29:28;8.30;99.90
32728;DHT22;55292;51.844;19.246;2023-02-20T13:34:35;8.20;99.90
32728;DHT22;55292;51.844;19.246;2023-02-20T13:39:39;8.10;99.90
32728;DHT22;55292;51.844;19.246;2023-02-20T13:44:43;8.10;99.90
32728;DHT22;55292;51.844;19.246;2023-02-20T13:49:53;8.10;99.90
32728;DHT22;55292;51.844;19.246;2023-02-20T14:05:34;8.40;99.90
32728;DHT22;55292;51.844;19.246;2023-02-20T14:10:37;8.50;99.90
32728;DHT22;55292;51.844;19.246;2023-02-20T14:15:59;8.60;99.90
32728;DHT22;55292;51.844;19.246;2023-02-20T14:21:09;8.60;99.90
32728;DHT22;55292;51.844;19.246;2023-02-20T14:26:35;8.70;99.90
32728;DHT22;55292;51.844;19.246;2023-02-20T14:31:38;8.70;99.90
32728;DHT22;55292;51.844;19.246;2023-02-20T14:37:00;8.60;99.90
32728;DHT22;55292;51.844;19.246;2023-02-20T14:42:13;8.70;99.90
32728;DHT22;55292;51.844;19.246;2023-02-20T14:47:17;8.60;99.90
32728;DHT22;55292;51.844;19.246;2023-02-20T14:52:22;8.60;99.90
32728;DHT22;55292;51.844;19.246;2023-02-20T14:57:26;8.60;99.90
32728;DHT22;55292;51.844;19.246;2023-02-20T15:02:29;8.60;99.90
32728;DHT22;55292;51.844;19.246;2023-02-20T15:07:37;8.60;99.90
32728;DHT22;55292;51.844;19.246;2023-02-20T15:12:42;8.70;99.90
32728;DHT22;55292;51.844;19.246;2023-02-20T15:17:45;8.60;99.90
32728;DHT22;55292;51.844;19.246;2023-02-20T15:22:47;8.70;99.90
32728;DHT22;55292;51.844;19.246;2023-02-20T15:28:09;8.70;99.90
32728;DHT22;55292;51.844;19.246;2023-02-20T15:33:12;8.70;99.90
32728;DHT22;55292;51.844;19.246;2023-02-20T15:38:15;8.60;99.90
32728;DHT22;55292;51.844;19.246;2023-02-20T15:43:17;8.50;99.90
32728;DHT22;55292;51.844;19.246;2023-02-20T15:48:41;8.50;99.90
32728;DHT22;55292;51.844;19.246;2023-02-20T15:53:44;8.50;99.90
32728;DHT22;55292;51.844;19.246;2023-02-20T15:58:48;8.50;99.90
32728;DHT22;55292;51.844;19.246;2023-02-20T16:03:51;8.50;99.90
32728;DHT22;55292;51.844;19.246;2023-02-20T16:08:54;8.50;99.90
32728;DHT22;55292;51.844;19.246;2023-02-20T16:13:58;8.50;99.90
32728;DHT22;55292;51.844;19.246;2023-02-20T16:19:03;8.60;99.90
32728;DHT22;55292;51.844;19.246;2023-02-20T16:24:11;8.60;99.90
32728;DHT22;55292;51.844;19.246;2023-02-20T16:29:31;8.60;99.90
32728;DHT22;55292;51.844;19.246;2023-02-20T16:34:34;8.70;99.90
32728;DHT22;55292;51.844;19.246;2023-02-20T16:39:39;8.70;99.90
32728;DHT22;55292;51.844;19.246;2023-02-20T16:44:43;8.70;99.90
32728;DHT22;55292;51.844;19.246;2023-02-20T16:49:47;8.70;99.90
32728;DHT22;55292;51.844;19.246;2023-02-20T16:54:51;8.60;99.90
32728;DHT22;55292;51.844;19.246;2023-02-20T16:59:58;8.70;99.90
32728;DHT22;55292;51.844;19.246;2023-02-20T17:05:01;11.40;99.90
32728;DHT22;55292;51.844;19.246;2023-02-20T17:10:05;8.70;99.90
32728;DHT22;55292;51.844;19.246;2023-02-20T17:15:09;8.70;99.90
32728;DHT22;55292;51.844;19.246;2023-02-20T17:20:24;8.70;99.90
32728;DHT22;55292;51.844;19.246;2023-02-20T17:25:28;8.70;99.90
32728;DHT22;55292;51.844;19.246;2023-02-20T17:30:30;8.70;99.90
32728;DHT22;55292;51.844;19.246;2023-02-20T17:35:33;8.80;99.90
32728;DHT22;55292;51.844;19.246;2023-02-20T17:40:35;8.80;99.90
32728;DHT22;55292;51.844;19.246;2023-02-20T17:45:39;9.40;99.90
32728;DHT22;55292;51.844;19.246;2023-02-20T17:50:41;8.80;99.90
32728;DHT22;55292;51.844;19.246;2023-02-20T17:55:44;8.90;99.90
32728;DHT22;55292;51.844;19.246;2023-02-20T18:00:47;8.80;99.90
32728;DHT22;55292;51.844;19.246;2023-02-20T18:05:49;8.80;99.90
32728;DHT22;55292;51.844;19.246;2023-02-20T18:10:52;8.90;99.90
32728;DHT22;55292;51.844;19.246;2023-02-20T18:15:54;8.90;99.90
32728;DHT22;55292;51.844;19.246;2023-02-20T18:20:57;8.90;99.90
32728;DHT22;55292;51.844;19.246;2023-02-20T18:26:00;8.90;99.90
32728;DHT22;55292;51.844;19.246;2023-02-20T18:31:03;8.90;99.90
32728;DHT22;55292;51.844;19.246;2023-02-20T18:36:06;8.90;99.90
32728;DHT22;55292;51.844;19.246;2023-02-20T18:41:11;8.80;99.90
32728;DHT22;55292;51.844;19.246;2023-02-20T18:46:24;8.90;99.90
32728;DHT22;55292;51.844;19.246;2023-02-20T18:51:39;8.80;99.90
32728;DHT22;55292;51.844;19.246;2023-02-20T18:56:49;8.80;99.90
32728;DHT22;55292;51.844;19.246;2023-02-20T19:01:52;8.70;99.90
32728;DHT22;55292;51.844;19.246;2023-02-20T19:06:57;8.70;99.90
32728;DHT22;55292;51.844;19.246;2023-02-20T19:12:00;8.70;99.90
32728;DHT22;55292;51.844;19.246;2023-02-20T19:17:04;8.70;99.90
32728;DHT22;55292;51.844;19.246;2023-02-20T19:22:09;8.70;99.90
32728;DHT22;55292;51.844;19.246;2023-02-20T19:27:11;8.60;99.90
32728;DHT22;55292;51.844;19.246;2023-02-20T19:32:14;8.70;99.90
32728;DHT22;55292;51.844;19.246;2023-02-20T19:37:17;8.70;99.90
32728;DHT22;55292;51.844;19.246;2023-02-20T19:42:20;8.70;99.90
32728;DHT22;55292;51.844;19.246;2023-02-20T19:47:23;8.60;99.90
32728;DHT22;55292;51.844;19.246;2023-02-20T19:52:26;8.60;99.90
32728;DHT22;55292;51.844;19.246;2023-02-20T19:57:28;8.50;99.90
32728;DHT22;55292;51.844;19.246;2023-02-20T20:02:31;8.40;99.90
32728;DHT22;55292;51.844;19.246;2023-02-20T20:07:34;8.20;99.90
32728;DHT22;55292;51.844;19.246;2023-02-20T20:12:37;8.20;99.90
32728;DHT22;55292;51.844;19.246;2023-02-20T20:17:51;8.20;99.90
32728;DHT22;55292;51.844;19.246;2023-02-20T20:22:57;8.20;99.90
32728;DHT22;55292;51.844;19.246;2023-02-20T20:28:00;8.20;99.90
32728;DHT22;55292;51.844;19.246;2023-02-20T20:33:05;8.20;99.90
32728;DHT22;55292;51.844;19.246;2023-02-20T20:38:08;8.20;99.90
32728;DHT22;55292;51.844;19.246;2023-02-20T20:43:11;8.20;99.90
32728;DHT22;55292;51.844;19.246;2023-02-20T20:48:16;8.20;99.90
32728;DHT22;55292;51.844;19.246;2023-02-20T20:53:18;8.20;99.90
32728;DHT22;55292;51.844;19.246;2023-02-20T20:58:21;8.10;99.90
32728;DHT22;55292;51.844;19.246;2023-02-20T21:03:24;8.00;99.90
32728;DHT22;55292;51.844;19.246;2023-02-20T21:08:27;8.00;99.90
32728;DHT22;55292;51.844;19.246;2023-02-20T21:13:31;8.00;99.90
32728;DHT22;55292;51.844;19.246;2023-02-20T21:18:33;8.10;99.90
32728;DHT22;55292;51.844;19.246;2023-02-20T21:23:36;8.10;99.90
32728;DHT22;55292;51.844;19.246;2023-02-20T21:28:41;8.10;99.90
32728;DHT22;55292;51.844;19.246;2023-02-20T21:33:44;8.10;99.90
32728;DHT22;55292;51.844;19.246;2023-02-20T21:38:46;8.10;99.90
32728;DHT22;55292;51.844;19.246;2023-02-20T21:43:49;8.10;99.90
32728;DHT22;55292;51.844;19.246;2023-02-20T21:49:10;8.20;99.90
32728;DHT22;55292;51.844;19.246;2023-02-20T21:54:15;8.20;99.90
32728;DHT22;55292;51.844;19.246;2023-02-20T21:59:18;8.20;99.90
32728;DHT22;55292;51.844;19.246;2023-02-20T22:04:21;8.20;99.90
32728;DHT22;55292;51.844;19.246;2023-02-20T22:09:23;8.20;99.90
32728;DHT22;55292;51.844;19.246;2023-02-20T22:14:44;8.20;99.90
32728;DHT22;55292;51.844;19.246;2023-02-20T22:20:06;8.20;99.90
32728;DHT22;55292;51.844;19.246;2023-02-20T22:25:28;8.20;99.90
32728;DHT22;55292;51.844;19.246;2023-02-20T22:30:49;8.20;99.90
32728;DHT22;55292;51.844;19.246;2023-02-20T22:36:10;8.20;99.90
32728;DHT22;55292;51.844;19.246;2023-02-20T22:41:31;8.20;99.90
32728;DHT22;55292;51.844;19.246;2023-02-20T22:46:53;8.20;99.90
32728;DHT22;55292;51.844;19.246;2023-02-20T22:52:14;8.20;99.90
32728;DHT22;55292;51.844;19.246;2023-02-20T22:57:35;8.10;99.90
32728;DHT22;55292;51.844;19.246;2023-02-20T23:02:56;8.00;99.90
32728;DHT22;55292;51.844;19.246;2023-02-20T23:08:17;7.80;99.90
32728;DHT22;55292;51.844;19.246;2023-02-20T23:13:38;7.60;99.90
32728;DHT22;55292;51.844;19.246;2023-02-20T23:18:59;6.10;99.90
32728;DHT22;55292;51.844;19.246;2023-02-20T23:24:20;7.50;99.90
32728;DHT22;55292;51.844;19.246;2023-02-20T23:29:42;7.50;99.90
32728;DHT22;55292;51.844;19.246;2023-02-20T23:35:03;7.60;99.90
32728;DHT22;55292;51.844;19.246;2023-02-20T23:40:24;7.60;99.90
32728;DHT22;55292;51.844;19.246;2023-02-20T23:45:46;7.60;99.90
32728;DHT22;55292;51.844;19.246;2023-02-20T23:51:11;7.70;99.90
32728;DHT22;55292;51.844;19.246;2023-02-20T23:56:32;7.60;99.90
